sensor_id;sensor_type;location;lat;lon;timestamp;P1;durP1;ratioP1;P2;durP2;ratioP2
21550;SDS011;10936;49.836;7.078;2023-02-28T06:00:34;18.10;;;11.00;;
21550;SDS011;10936;49.836;7.078;2023-02-28T06:03:00;17.10;;;11.67;;
21550;SDS011;10936;49.836;7.078;2023-02-28T06:05:26;18.20;;;10.63;;
21550;SDS011;10936;49.836;7.078;2023-02-28T06:07:52;19.63;;;11.27;;
21550;SDS011;10936;49.836;7.078;2023-02-28T06:10:18;17.60;;;11.00;;
21550;SDS011;10936;49.836;7.078;2023-02-28T06:12:44;17.67;;;10.17;;
21550;SDS011;10936;49.836;7.078;2023-02-28T06:15:13;17.80;;;10.97;;
21550;SDS011;10936;49.836;7.078;2023-02-28T06:17:41;14.73;;;9.13;;
21550;SDS011;10936;49.836;7.078;2023-02-28T06:20:07;16.90;;;11.30;;
21550;SDS011;10936;49.836;7.078;2023-02-28T06:22:34;18.40;;;10.90;;
21550;SDS011;10936;49.836;7.078;2023-02-28T06:25:00;16.43;;;10.77;;
21550;SDS011;10936;49.836;7.078;2023-02-28T06:27:26;18.83;;;10.83;;
21550;SDS011;10936;49.836;7.078;2023-02-28T06:29:53;15.47;;;8.87;;
21550;SDS011;10936;49.836;7.078;2023-02-28T06:32:20;13.80;;;9.30;;
21550;SDS011;10936;49.836;7.078;2023-02-28T06:34:46;15.33;;;10.13;;
21550;SDS011;10936;49.836;7.078;2023-02-28T06:37:12;15.97;;;9.70;;
21550;SDS011;10936;49.836;7.078;2023-02-28T06:39:37;15.47;;;9.27;;
21550;SDS011;10936;49.836;7.078;2023-02-28T06:42:03;13.70;;;9.03;;
21550;SDS011;10936;49.836;7.078;2023-02-28T06:44:29;15.47;;;9.20;;
21550;SDS011;10936;49.836;7.078;2023-02-28T06:47:00;13.13;;;8.70;;
21550;SDS011;10936;49.836;7.078;2023-02-28T06:49:34;13.63;;;8.50;;
21550;SDS011;10936;49.836;7.078;2023-02-28T06:52:00;11.57;;;7.33;;
21550;SDS011;10936;49.836;7.078;2023-02-28T06:54:26;13.93;;;8.57;;
21550;SDS011;10936;49.836;7.078;2023-02-28T06:56:52;9.83;;;6.97;;
21550;SDS011;10936;49.836;7.078;2023-02-28T06:59:19;14.23;;;8.00;;
21550;SDS011;10936;49.836;7.078;2023-02-28T07:01:45;11.23;;;6.63;;
21550;SDS011;10936;49.836;7.078;2023-02-28T07:04:10;9.93;;;5.90;;
21550;SDS011;10936;49.836;7.078;2023-02-28T07:06:37;8.60;;;5.40;;
21550;SDS011;10936;49.836;7.078;2023-02-28T07:09:04;8.70;;;5.33;;
21550;SDS011;10936;49.836;7.078;2023-02-28T07:11:30;6.33;;;4.93;;
21550;SDS011;10936;49.836;7.078;2023-02-28T07:13:55;6.17;;;5.20;;
21550;SDS011;10936;49.836;7.078;2023-02-28T07:16:22;7.70;;;5.57;;
21550;SDS011;10936;49.836;7.078;2023-02-28T07:18:48;7.70;;;5.47;;
21550;SDS011;10936;49.836;7.078;2023-02-28T07:21:14;12.90;;;5.70;;
21550;SDS011;10936;49.836;7.078;2023-02-28T07:23:40;7.47;;;5.60;;
21550;SDS011;10936;49.836;7.078;2023-02-28T07:26:06;7.27;;;5.27;;
21550;SDS011;10936;49.836;7.078;2023-02-28T07:28:36;7.53;;;5.37;;
21550;SDS011;10936;49.836;7.078;2023-02-28T07:31:05;9.43;;;5.17;;
21550;SDS011;10936;49.836;7.078;2023-02-28T07:33:31;8.43;;;5.30;;
21550;SDS011;10936;49.836;7.078;2023-02-28T07:36:06;9.50;;;5.87;;
21550;SDS011;10936;49.836;7.078;2023-02-28T07:38:44;9.17;;;5.77;;
21550;SDS011;10936;49.836;7.078;2023-02-28T07:41:13;8.73;;;5.40;;
21550;SDS011;10936;49.836;7.078;2023-02-28T07:43:40;7.47;;;5.80;;
21550;SDS011;10936;49.836;7.078;2023-02-28T07:46:09;7.17;;;4.93;;
21550;SDS011;10936;49.836;7.078;2023-02-28T07:48:36;6.60;;;4.87;;
21550;SDS011;10936;49.836;7.078;2023-02-28T07:51:03;7.87;;;5.00;;
21550;SDS011;10936;49.836;7.078;2023-02-28T07:53:29;9.15;;;5.82;;
21550;SDS011;10936;49.836;7.078;2023-02-28T07:55:59;7.97;;;4.97;;
21550;SDS011;10936;49.836;7.078;2023-02-28T07:58:26;6.13;;;4.97;;
21550;SDS011;10936;49.836;7.078;2023-02-28T08:00:53;9.93;;;4.77;;
21550;SDS011;10936;49.836;7.078;2023-02-28T08:03:19;6.67;;;4.33;;
21550;SDS011;10936;49.836;7.078;2023-02-28T08:05:46;5.47;;;4.20;;
21550;SDS011;10936;49.836;7.078;2023-02-28T08:08:12;7.17;;;5.13;;
21550;SDS011;10936;49.836;7.078;2023-02-28T08:10:38;8.90;;;5.33;;
21550;SDS011;10936;49.836;7.078;2023-02-28T08:13:04;6.00;;;4.37;;
21550;SDS011;10936;49.836;7.078;2023-02-28T08:15:30;7.87;;;5.33;;
21550;SDS011;10936;49.836;7.078;2023-02-28T08:17:56;9.30;;;5.10;;
21550;SDS011;10936;49.836;7.078;2023-02-28T08:20:22;10.77;;;5.20;;
21550;SDS011;10936;49.836;7.078;2023-02-28T08:22:48;9.93;;;5.23;;
21550;SDS011;10936;49.836;7.078;2023-02-28T08:25:14;8.07;;;5.30;;
21550;SDS011;10936;49.836;7.078;2023-02-28T08:27:39;6.83;;;4.77;;
21550;SDS011;10936;49.836;7.078;2023-02-28T08:30:05;8.80;;;4.67;;
21550;SDS011;10936;49.836;7.078;2023-02-28T08:32:32;5.40;;;3.70;;
21550;SDS011;10936;49.836;7.078;2023-02-28T08:34:58;5.53;;;4.10;;
21550;SDS011;10936;49.836;7.078;2023-02-28T08:37:24;9.47;;;4.57;;
21550;SDS011;10936;49.836;7.078;2023-02-28T08:39:50;8.23;;;4.73;;
21550;SDS011;10936;49.836;7.078;2023-02-28T08:42:15;7.20;;;5.00;;
21550;SDS011;10936;49.836;7.078;2023-02-28T08:44:42;8.47;;;5.53;;
21550;SDS011;10936;49.836;7.078;2023-02-28T08:47:08;6.07;;;5.00;;
21550;SDS011;10936;49.836;7.078;2023-02-28T08:49:33;8.30;;;4.70;;
21550;SDS011;10936;49.836;7.078;2023-02-28T08:51:59;7.77;;;4.97;;
21550;SDS011;10936;49.836;7.078;2023-02-28T08:54:24;6.87;;;3.53;;
21550;SDS011;10936;49.836;7.078;2023-02-28T08:56:50;8.10;;;5.27;;
21550;SDS011;10936;49.836;7.078;2023-02-28T08:59:15;8.00;;;4.90;;
21550;SDS011;10936;49.836;7.078;2023-02-28T09:01:41;6.23;;;4.43;;
21550;SDS011;10936;49.836;7.078;2023-02-28T09:04:08;9.60;;;4.87;;
21550;SDS011;10936;49.836;7.078;2023-02-28T09:06:35;8.53;;;3.37;;
21550;SDS011;10936;49.836;7.078;2023-02-28T09:09:01;7.93;;;4.43;;
21550;SDS011;10936;49.836;7.078;2023-02-28T09:11:29;6.47;;;3.97;;
21550;SDS011;10936;49.836;7.078;2023-02-28T09:13:54;7.77;;;5.10;;
21550;SDS011;10936;49.836;7.078;2023-02-28T09:16:24;4.93;;;4.10;;
21550;SDS011;10936;49.836;7.078;2023-02-28T09:18:49;6.47;;;4.43;;
21550;SDS011;10936;49.836;7.078;2023-02-28T09:21:16;7.30;;;4.43;;
21550;SDS011;10936;49.836;7.078;2023-02-28T09:23:42;6.90;;;4.70;;
21550;SDS011;10936;49.836;7.078;2023-02-28T09:26:16;5.77;;;3.60;;
21550;SDS011;10936;49.836;7.078;2023-02-28T09:28:43;5.43;;;4.10;;
21550;SDS011;10936;49.836;7.078;2023-02-28T09:31:17;5.03;;;3.70;;
21550;SDS011;10936;49.836;7.078;2023-02-28T09:33:48;10.60;;;4.10;;
21550;SDS011;10936;49.836;7.078;2023-02-28T09:36:15;7.53;;;4.07;;
21550;SDS011;10936;49.836;7.078;2023-02-28T09:38:41;6.17;;;3.87;;
21550;SDS011;10936;49.836;7.078;2023-02-28T09:41:17;5.00;;;3.70;;
21550;SDS011;10936;49.836;7.078;2023-02-28T09:43:46;6.07;;;3.93;;
21550;SDS011;10936;49.836;7.078;2023-02-28T09:48:56;7.03;;;3.93;;
21550;SDS011;10936;49.836;7.078;2023-02-28T09:54:10;4.90;;;3.60;;
21550;SDS011;10936;49.836;7.078;2023-02-28T09:56:48;6.67;;;3.73;;
21550;SDS011;10936;49.836;7.078;2023-02-28T09:59:28;6.07;;;3.87;;
21550;SDS011;10936;49.836;7.078;2023-02-28T10:02:38;7.17;;;4.30;;
21550;SDS011;10936;49.836;7.078;2023-02-28T10:05:27;7.97;;;4.43;;
21550;SDS011;10936;49.836;7.078;2023-02-28T10:08:09;10.30;;;5.00;;
21550;SDS011;10936;49.836;7.078;2023-02-28T10:10:47;7.20;;;5.07;;
21550;SDS011;10936;49.836;7.078;2023-02-28T10:13:27;7.30;;;5.10;;
21550;SDS011;10936;49.836;7.078;2023-02-28T10:16:15;10.13;;;5.13;;
21550;SDS011;10936;49.836;7.078;2023-02-28T10:18:54;8.53;;;5.20;;
21550;SDS011;10936;49.836;7.078;2023-02-28T10:21:35;11.67;;;4.83;;
21550;SDS011;10936;49.836;7.078;2023-02-28T10:24:14;6.63;;;4.90;;
21550;SDS011;10936;49.836;7.078;2023-02-28T10:26:48;7.57;;;5.00;;
21550;SDS011;10936;49.836;7.078;2023-02-28T10:29:17;8.57;;;5.37;;
21550;SDS011;10936;49.836;7.078;2023-02-28T10:31:43;7.63;;;5.40;;
21550;SDS011;10936;49.836;7.078;2023-02-28T10:34:10;7.03;;;5.10;;
21550;SDS011;10936;49.836;7.078;2023-02-28T10:36:37;8.47;;;5.23;;
21550;SDS011;10936;49.836;7.078;2023-02-28T10:39:33;6.87;;;5.07;;
21550;SDS011;10936;49.836;7.078;2023-02-28T10:41:59;7.83;;;5.67;;
21550;SDS011;10936;49.836;7.078;2023-02-28T10:44:25;6.07;;;4.03;;
21550;SDS011;10936;49.836;7.078;2023-02-28T10:46:50;12.33;;;5.17;;
21550;SDS011;10936;49.836;7.078;2023-02-28T10:49:27;8.43;;;5.60;;
21550;SDS011;10936;49.836;7.078;2023-02-28T10:51:54;7.13;;;5.20;;
21550;SDS011;10936;49.836;7.078;2023-02-28T10:57:07;11.37;;;6.30;;
21550;SDS011;10936;49.836;7.078;2023-02-28T10:59:44;7.73;;;5.50;;
21550;SDS011;10936;49.836;7.078;2023-02-28T11:05:30;8.27;;;5.20;;
21550;SDS011;10936;49.836;7.078;2023-02-28T11:08:10;6.47;;;4.70;;
21550;SDS011;10936;49.836;7.078;2023-02-28T11:10:39;11.33;;;5.83;;
21550;SDS011;10936;49.836;7.078;2023-02-28T11:13:16;9.23;;;5.00;;
21550;SDS011;10936;49.836;7.078;2023-02-28T11:15:48;7.83;;;5.03;;
21550;SDS011;10936;49.836;7.078;2023-02-28T11:21:18;6.10;;;4.00;;
21550;SDS011;10936;49.836;7.078;2023-02-28T11:23:47;10.57;;;5.27;;
21550;SDS011;10936;49.836;7.078;2023-02-28T11:26:15;8.80;;;5.70;;
21550;SDS011;10936;49.836;7.078;2023-02-28T11:29:09;10.47;;;5.50;;
21550;SDS011;10936;49.836;7.078;2023-02-28T11:31:36;8.93;;;5.70;;
21550;SDS011;10936;49.836;7.078;2023-02-28T11:34:10;6.73;;;5.43;;
21550;SDS011;10936;49.836;7.078;2023-02-28T11:36:51;7.80;;;5.43;;
21550;SDS011;10936;49.836;7.078;2023-02-28T11:39:18;6.77;;;4.70;;
21550;SDS011;10936;49.836;7.078;2023-02-28T11:41:53;6.07;;;4.10;;
21550;SDS011;10936;49.836;7.078;2023-02-28T11:50:36;6.80;;;4.43;;
21550;SDS011;10936;49.836;7.078;2023-02-28T11:53:35;8.27;;;5.37;;
21550;SDS011;10936;49.836;7.078;2023-02-28T11:56:16;8.00;;;4.77;;
21550;SDS011;10936;49.836;7.078;2023-02-28T12:04:26;11.70;;;5.63;;
21550;SDS011;10936;49.836;7.078;2023-02-28T12:12:39;8.07;;;5.77;;
21550;SDS011;10936;49.836;7.078;2023-02-28T12:15:43;7.93;;;5.60;;
21550;SDS011;10936;49.836;7.078;2023-02-28T12:18:24;7.07;;;5.13;;
21550;SDS011;10936;49.836;7.078;2023-02-28T12:29:19;9.43;;;4.90;;
21550;SDS011;10936;49.836;7.078;2023-02-28T12:34:31;7.33;;;5.10;;
21550;SDS011;10936;49.836;7.078;2023-02-28T12:37:03;7.43;;;5.07;;
21550;SDS011;10936;49.836;7.078;2023-02-28T12:39:36;5.50;;;4.50;;
21550;SDS011;10936;49.836;7.078;2023-02-28T12:42:13;10.13;;;5.33;;
21550;SDS011;10936;49.836;7.078;2023-02-28T12:45:19;10.80;;;4.10;;
21550;SDS011;10936;49.836;7.078;2023-02-28T12:47:52;7.97;;;4.50;;
21550;SDS011;10936;49.836;7.078;2023-02-28T12:50:23;7.57;;;5.20;;
21550;SDS011;10936;49.836;7.078;2023-02-28T12:52:56;8.10;;;5.03;;
21550;SDS011;10936;49.836;7.078;2023-02-28T13:04:42;8.70;;;5.20;;
21550;SDS011;10936;49.836;7.078;2023-02-28T13:10:13;7.77;;;5.03;;
21550;SDS011;10936;49.836;7.078;2023-02-28T13:12:51;9.50;;;5.30;;
21550;SDS011;10936;49.836;7.078;2023-02-28T13:17:53;9.93;;;5.10;;
21550;SDS011;10936;49.836;7.078;2023-02-28T13:20:22;8.10;;;5.30;;
21550;SDS011;10936;49.836;7.078;2023-02-28T13:22:55;9.30;;;5.10;;
21550;SDS011;10936;49.836;7.078;2023-02-28T13:27:48;19.13;;;5.37;;
21550;SDS011;10936;49.836;7.078;2023-02-28T13:35:44;7.50;;;5.03;;
21550;SDS011;10936;49.836;7.078;2023-02-28T13:38:44;7.07;;;4.77;;
21550;SDS011;10936;49.836;7.078;2023-02-28T13:46:35;9.97;;;6.37;;
21550;SDS011;10936;49.836;7.078;2023-02-28T13:49:30;11.30;;;5.33;;
21550;SDS011;10936;49.836;7.078;2023-02-28T14:00:43;8.40;;;4.83;;
21550;SDS011;10936;49.836;7.078;2023-02-28T14:09:06;9.60;;;5.87;;
21550;SDS011;10936;49.836;7.078;2023-02-28T14:11:46;10.47;;;6.50;;
21550;SDS011;10936;49.836;7.078;2023-02-28T14:17:08;9.43;;;5.80;;
21550;SDS011;10936;49.836;7.078;2023-02-28T14:19:39;9.17;;;6.10;;
21550;SDS011;10936;49.836;7.078;2023-02-28T14:25:23;11.10;;;6.53;;
21550;SDS011;10936;49.836;7.078;2023-02-28T14:30:51;12.10;;;6.53;;
21550;SDS011;10936;49.836;7.078;2023-02-28T14:36:00;10.67;;;5.93;;
21550;SDS011;10936;49.836;7.078;2023-02-28T14:38:55;10.63;;;6.07;;
21550;SDS011;10936;49.836;7.078;2023-02-28T14:43:56;11.73;;;6.33;;
21550;SDS011;10936;49.836;7.078;2023-02-28T14:46:27;12.77;;;6.93;;
21550;SDS011;10936;49.836;7.078;2023-02-28T14:48:59;10.40;;;5.77;;
21550;SDS011;10936;49.836;7.078;2023-02-28T14:51:25;8.90;;;6.33;;
21550;SDS011;10936;49.836;7.078;2023-02-28T14:53:52;11.17;;;6.80;;
21550;SDS011;10936;49.836;7.078;2023-02-28T14:56:27;12.90;;;6.50;;
21550;SDS011;10936;49.836;7.078;2023-02-28T14:59:02;11.90;;;6.73;;
21550;SDS011;10936;49.836;7.078;2023-02-28T15:01:29;8.60;;;5.03;;
21550;SDS011;10936;49.836;7.078;2023-02-28T15:03:59;9.77;;;6.23;;
21550;SDS011;10936;49.836;7.078;2023-02-28T15:06:30;10.30;;;6.60;;
21550;SDS011;10936;49.836;7.078;2023-02-28T15:09:10;8.70;;;5.47;;
21550;SDS011;10936;49.836;7.078;2023-02-28T15:11:39;11.17;;;6.83;;
21550;SDS011;10936;49.836;7.078;2023-02-28T15:14:05;9.93;;;5.90;;
21550;SDS011;10936;49.836;7.078;2023-02-28T15:16:32;8.00;;;5.13;;
21550;SDS011;10936;49.836;7.078;2023-02-28T15:19:11;9.67;;;6.53;;
21550;SDS011;10936;49.836;7.078;2023-02-28T15:21:55;10.33;;;6.00;;
21550;SDS011;10936;49.836;7.078;2023-02-28T15:24:40;10.77;;;6.77;;
21550;SDS011;10936;49.836;7.078;2023-02-28T15:27:16;9.63;;;6.20;;
21550;SDS011;10936;49.836;7.078;2023-02-28T15:29:48;11.07;;;6.33;;
21550;SDS011;10936;49.836;7.078;2023-02-28T15:34:46;10.53;;;6.77;;
21550;SDS011;10936;49.836;7.078;2023-02-28T15:39:58;11.93;;;5.63;;
21550;SDS011;10936;49.836;7.078;2023-02-28T15:42:36;10.37;;;6.53;;
21550;SDS011;10936;49.836;7.078;2023-02-28T15:45:02;6.77;;;4.80;;
21550;SDS011;10936;49.836;7.078;2023-02-28T15:47:28;13.27;;;6.77;;
21550;SDS011;10936;49.836;7.078;2023-02-28T15:49:56;14.27;;;6.23;;
21550;SDS011;10936;49.836;7.078;2023-02-28T15:52:26;9.00;;;5.80;;
21550;SDS011;10936;49.836;7.078;2023-02-28T15:55:22;9.70;;;5.93;;
21550;SDS011;10936;49.836;7.078;2023-02-28T15:58:01;11.33;;;6.37;;
21550;SDS011;10936;49.836;7.078;2023-02-28T16:00:28;11.17;;;6.33;;
21550;SDS011;10936;49.836;7.078;2023-02-28T16:02:55;10.73;;;6.10;;
21550;SDS011;10936;49.836;7.078;2023-02-28T16:05:22;9.07;;;6.30;;
21550;SDS011;10936;49.836;7.078;2023-02-28T16:07:55;11.70;;;7.13;;
21550;SDS011;10936;49.836;7.078;2023-02-28T16:10:22;9.50;;;6.27;;
21550;SDS011;10936;49.836;7.078;2023-02-28T16:12:52;10.40;;;5.90;;
21550;SDS011;10936;49.836;7.078;2023-02-28T16:15:24;11.77;;;6.57;;
21550;SDS011;10936;49.836;7.078;2023-02-28T16:17:52;12.10;;;6.13;;
21550;SDS011;10936;49.836;7.078;2023-02-28T16:20:26;11.13;;;6.47;;
21550;SDS011;10936;49.836;7.078;2023-02-28T16:22:53;9.00;;;5.97;;
21550;SDS011;10936;49.836;7.078;2023-02-28T16:25:20;10.93;;;7.20;;
21550;SDS011;10936;49.836;7.078;2023-02-28T16:27:50;9.80;;;6.33;;
21550;SDS011;10936;49.836;7.078;2023-02-28T16:30:23;11.67;;;6.53;;
21550;SDS011;10936;49.836;7.078;2023-02-28T16:32:51;10.93;;;6.33;;
21550;SDS011;10936;49.836;7.078;2023-02-28T16:35:19;11.20;;;6.27;;
21550;SDS011;10936;49.836;7.078;2023-02-28T16:37:45;11.40;;;6.67;;
21550;SDS011;10936;49.836;7.078;2023-02-28T16:40:18;10.27;;;7.27;;
21550;SDS011;10936;49.836;7.078;2023-02-28T16:42:46;11.43;;;6.60;;
21550;SDS011;10936;49.836;7.078;2023-02-28T16:45:20;12.43;;;6.83;;
21550;SDS011;10936;49.836;7.078;2023-02-28T16:47:48;11.13;;;7.00;;
21550;SDS011;10936;49.836;7.078;2023-02-28T16:50:15;11.60;;;6.57;;
21550;SDS011;10936;49.836;7.078;2023-02-28T16:52:42;13.93;;;6.57;;
21550;SDS011;10936;49.836;7.078;2023-02-28T16:55:07;9.57;;;5.90;;
21550;SDS011;10936;49.836;7.078;2023-02-28T16:57:33;10.87;;;6.50;;
21550;SDS011;10936;49.836;7.078;2023-02-28T16:59:59;12.83;;;5.93;;
21550;SDS011;10936;49.836;7.078;2023-02-28T17:02:25;12.17;;;6.90;;
21550;SDS011;10936;49.836;7.078;2023-02-28T17:04:50;11.07;;;6.30;;
21550;SDS011;10936;49.836;7.078;2023-02-28T17:07:16;12.47;;;7.40;;
21550;SDS011;10936;49.836;7.078;2023-02-28T17:09:42;11.60;;;7.20;;
21550;SDS011;10936;49.836;7.078;2023-02-28T17:12:08;11.83;;;6.50;;
21550;SDS011;10936;49.836;7.078;2023-02-28T17:14:35;14.73;;;7.13;;
21550;SDS011;10936;49.836;7.078;2023-02-28T17:17:01;14.13;;;7.10;;
21550;SDS011;10936;49.836;7.078;2023-02-28T17:19:29;16.37;;;7.37;;
21550;SDS011;10936;49.836;7.078;2023-02-28T17:21:54;17.17;;;7.47;;
21550;SDS011;10936;49.836;7.078;2023-02-28T17:24:20;10.33;;;6.60;;
21550;SDS011;10936;49.836;7.078;2023-02-28T17:26:45;11.53;;;6.80;;
21550;SDS011;10936;49.836;7.078;2023-02-28T17:29:15;10.37;;;6.57;;
21550;SDS011;10936;49.836;7.078;2023-02-28T17:31:42;12.10;;;7.27;;
21550;SDS011;10936;49.836;7.078;2023-02-28T17:34:07;14.20;;;6.60;;
21550;SDS011;10936;49.836;7.078;2023-02-28T17:36:33;9.67;;;6.33;;
21550;SDS011;10936;49.836;7.078;2023-02-28T17:39:00;12.60;;;7.20;;
21550;SDS011;10936;49.836;7.078;2023-02-28T17:41:26;10.70;;;6.97;;
21550;SDS011;10936;49.836;7.078;2023-02-28T17:43:52;11.37;;;6.73;;
21550;SDS011;10936;49.836;7.078;2023-02-28T17:46:19;12.93;;;6.67;;
21550;SDS011;10936;49.836;7.078;2023-02-28T17:48:46;11.90;;;7.23;;
21550;SDS011;10936;49.836;7.078;2023-02-28T17:51:13;11.03;;;6.67;;
21550;SDS011;10936;49.836;7.078;2023-02-28T17:53:39;12.77;;;7.20;;
21550;SDS011;10936;49.836;7.078;2023-02-28T17:56:05;12.13;;;6.50;;
21550;SDS011;10936;49.836;7.078;2023-02-28T17:58:39;12.10;;;6.80;;
21550;SDS011;10936;49.836;7.078;2023-02-28T18:01:04;10.07;;;6.03;;
21550;SDS011;10936;49.836;7.078;2023-02-28T18:03:30;12.57;;;7.22;;
21550;SDS011;10936;49.836;7.078;2023-02-28T18:05:56;11.13;;;7.07;;
21550;SDS011;10936;49.836;7.078;2023-02-28T18:08:23;10.37;;;5.87;;
21550;SDS011;10936;49.836;7.078;2023-02-28T18:10:49;10.17;;;6.60;;
21550;SDS011;10936;49.836;7.078;2023-02-28T18:13:14;11.80;;;6.37;;
21550;SDS011;10936;49.836;7.078;2023-02-28T18:15:40;10.37;;;6.17;;
21550;SDS011;10936;49.836;7.078;2023-02-28T18:18:06;11.17;;;6.30;;
21550;SDS011;10936;49.836;7.078;2023-02-28T18:20:31;10.50;;;6.33;;
21550;SDS011;10936;49.836;7.078;2023-02-28T18:22:58;16.93;;;7.13;;
21550;SDS011;10936;49.836;7.078;2023-02-28T18:25:24;10.23;;;6.10;;
21550;SDS011;10936;49.836;7.078;2023-02-28T18:27:50;12.40;;;6.50;;
21550;SDS011;10936;49.836;7.078;2023-02-28T18:30:22;11.60;;;7.10;;
21550;SDS011;10936;49.836;7.078;2023-02-28T18:32:54;11.93;;;6.20;;
21550;SDS011;10936;49.836;7.078;2023-02-28T18:35:20;11.17;;;6.60;;
21550;SDS011;10936;49.836;7.078;2023-02-28T18:37:59;10.32;;;6.28;;
21550;SDS011;10936;49.836;7.078;2023-02-28T18:40:26;13.07;;;6.90;;
21550;SDS011;10936;49.836;7.078;2023-02-28T18:42:51;11.47;;;7.07;;
21550;SDS011;10936;49.836;7.078;2023-02-28T18:45:17;14.90;;;6.90;;
21550;SDS011;10936;49.836;7.078;2023-02-28T18:47:43;9.97;;;6.53;;
21550;SDS011;10936;49.836;7.078;2023-02-28T18:50:08;12.17;;;6.70;;
21550;SDS011;10936;49.836;7.078;2023-02-28T18:52:35;9.40;;;5.63;;
21550;SDS011;10936;49.836;7.078;2023-02-28T18:55:00;11.00;;;6.67;;
21550;SDS011;10936;49.836;7.078;2023-02-28T18:57:27;10.53;;;7.27;;
21550;SDS011;10936;49.836;7.078;2023-02-28T18:59:52;12.47;;;6.63;;
21550;SDS011;10936;49.836;7.078;2023-02-28T19:02:18;10.97;;;6.67;;
21550;SDS011;10936;49.836;7.078;2023-02-28T19:04:44;11.80;;;6.90;;
21550;SDS011;10936;49.836;7.078;2023-02-28T19:07:09;11.17;;;6.93;;
21550;SDS011;10936;49.836;7.078;2023-02-28T19:09:35;10.70;;;6.33;;
21550;SDS011;10936;49.836;7.078;2023-02-28T19:12:00;11.73;;;7.07;;
21550;SDS011;10936;49.836;7.078;2023-02-28T19:14:26;13.60;;;6.63;;
21550;SDS011;10936;49.836;7.078;2023-02-28T19:16:51;10.13;;;6.90;;
21550;SDS011;10936;49.836;7.078;2023-02-28T19:19:17;10.87;;;6.77;;
21550;SDS011;10936;49.836;7.078;2023-02-28T19:21:42;13.27;;;7.07;;
21550;SDS011;10936;49.836;7.078;2023-02-28T19:24:08;9.80;;;6.40;;
21550;SDS011;10936;49.836;7.078;2023-02-28T19:26:33;11.97;;;7.27;;
21550;SDS011;10936;49.836;7.078;2023-02-28T19:29:01;9.73;;;5.63;;
21550;SDS011;10936;49.836;7.078;2023-02-28T19:31:27;12.57;;;6.90;;
21550;SDS011;10936;49.836;7.078;2023-02-28T19:33:53;13.40;;;6.93;;
21550;SDS011;10936;49.836;7.078;2023-02-28T19:36:19;13.77;;;7.40;;
21550;SDS011;10936;49.836;7.078;2023-02-28T19:38:45;13.47;;;7.20;;
21550;SDS011;10936;49.836;7.078;2023-02-28T19:41:12;11.27;;;6.77;;
21550;SDS011;10936;49.836;7.078;2023-02-28T19:43:39;13.00;;;7.13;;
21550;SDS011;10936;49.836;7.078;2023-02-28T19:46:05;10.53;;;7.00;;
21550;SDS011;10936;49.836;7.078;2023-02-28T19:48:31;13.40;;;7.47;;
21550;SDS011;10936;49.836;7.078;2023-02-28T19:50:57;12.07;;;6.63;;
21550;SDS011;10936;49.836;7.078;2023-02-28T19:53:25;13.93;;;6.47;;
21550;SDS011;10936;49.836;7.078;2023-02-28T19:55:53;12.83;;;7.07;;
21550;SDS011;10936;49.836;7.078;2023-02-28T19:58:19;13.23;;;6.93;;
21550;SDS011;10936;49.836;7.078;2023-02-28T20:00:45;13.77;;;6.73;;
21550;SDS011;10936;49.836;7.078;2023-02-28T20:03:10;12.00;;;6.90;;
21550;SDS011;10936;49.836;7.078;2023-02-28T20:05:36;11.40;;;7.23;;
21550;SDS011;10936;49.836;7.078;2023-02-28T20:08:02;14.10;;;6.67;;
21550;SDS011;10936;49.836;7.078;2023-02-28T20:10:28;15.77;;;8.00;;
21550;SDS011;10936;49.836;7.078;2023-02-28T20:12:54;13.30;;;7.43;;
21550;SDS011;10936;49.836;7.078;2023-02-28T20:15:20;11.53;;;6.87;;
21550;SDS011;10936;49.836;7.078;2023-02-28T20:17:47;15.57;;;7.03;;
21550;SDS011;10936;49.836;7.078;2023-02-28T20:20:12;15.37;;;7.30;;
21550;SDS011;10936;49.836;7.078;2023-02-28T20:22:38;9.53;;;6.43;;
21550;SDS011;10936;49.836;7.078;2023-02-28T20:25:04;11.80;;;6.37;;
21550;SDS011;10936;49.836;7.078;2023-02-28T20:27:32;12.07;;;6.80;;
21550;SDS011;10936;49.836;7.078;2023-02-28T20:29:59;16.30;;;6.60;;
21550;SDS011;10936;49.836;7.078;2023-02-28T20:32:25;14.90;;;7.50;;
21550;SDS011;10936;49.836;7.078;2023-02-28T20:34:51;12.87;;;8.00;;
21550;SDS011;10936;49.836;7.078;2023-02-28T20:37:17;10.97;;;6.43;;
21550;SDS011;10936;49.836;7.078;2023-02-28T20:39:42;12.67;;;6.67;;
21550;SDS011;10936;49.836;7.078;2023-02-28T20:42:08;12.63;;;7.37;;
21550;SDS011;10936;49.836;7.078;2023-02-28T20:44:34;15.07;;;6.57;;
21550;SDS011;10936;49.836;7.078;2023-02-28T20:46:59;12.63;;;7.10;;
21550;SDS011;10936;49.836;7.078;2023-02-28T20:49:25;13.53;;;7.13;;
21550;SDS011;10936;49.836;7.078;2023-02-28T20:51:50;13.20;;;7.37;;
21550;SDS011;10936;49.836;7.078;2023-02-28T20:54:16;12.50;;;7.90;;
21550;SDS011;10936;49.836;7.078;2023-02-28T20:56:42;16.70;;;7.67;;
21550;SDS011;10936;49.836;7.078;2023-02-28T20:59:09;12.43;;;7.83;;
21550;SDS011;10936;49.836;7.078;2023-02-28T21:01:35;12.97;;;6.50;;
21550;SDS011;10936;49.836;7.078;2023-02-28T21:04:02;17.30;;;7.47;;
21550;SDS011;10936;49.836;7.078;2023-02-28T21:06:34;12.07;;;6.50;;
21550;SDS011;10936;49.836;7.078;2023-02-28T21:09:02;11.53;;;7.30;;
21550;SDS011;10936;49.836;7.078;2023-02-28T21:11:30;12.27;;;7.20;;
21550;SDS011;10936;49.836;7.078;2023-02-28T21:13:58;10.83;;;6.70;;
21550;SDS011;10936;49.836;7.078;2023-02-28T21:16:25;12.37;;;7.37;;
21550;SDS011;10936;49.836;7.078;2023-02-28T21:18:53;11.60;;;7.70;;
21550;SDS011;10936;49.836;7.078;2023-02-28T21:21:21;13.40;;;7.83;;
21550;SDS011;10936;49.836;7.078;2023-02-28T21:23:48;14.07;;;8.07;;
21550;SDS011;10936;49.836;7.078;2023-02-28T21:26:15;12.97;;;7.23;;
21550;SDS011;10936;49.836;7.078;2023-02-28T21:28:47;13.47;;;7.70;;
21550;SDS011;10936;49.836;7.078;2023-02-28T21:31:14;13.73;;;8.13;;
21550;SDS011;10936;49.836;7.078;2023-02-28T21:33:41;15.77;;;7.60;;
21550;SDS011;10936;49.836;7.078;2023-02-28T21:36:12;14.43;;;7.93;;
21550;SDS011;10936;49.836;7.078;2023-02-28T21:38:43;12.10;;;6.87;;
21550;SDS011;10936;49.836;7.078;2023-02-28T21:41:14;14.20;;;8.27;;
21550;SDS011;10936;49.836;7.078;2023-02-28T21:43:41;13.27;;;7.83;;
21550;SDS011;10936;49.836;7.078;2023-02-28T21:46:08;14.87;;;8.27;;
21550;SDS011;10936;49.836;7.078;2023-02-28T21:48:35;13.90;;;8.47;;
21550;SDS011;10936;49.836;7.078;2023-02-28T21:51:05;17.00;;;8.10;;
21550;SDS011;10936;49.836;7.078;2023-02-28T21:53:34;15.23;;;8.03;;
21550;SDS011;10936;49.836;7.078;2023-02-28T21:56:03;14.73;;;7.77;;
21550;SDS011;10936;49.836;7.078;2023-02-28T21:58:31;15.37;;;8.30;;
21550;SDS011;10936;49.836;7.078;2023-02-28T22:01:04;15.73;;;8.50;;
21550;SDS011;10936;49.836;7.078;2023-02-28T22:03:31;14.03;;;7.77;;
21550;SDS011;10936;49.836;7.078;2023-02-28T22:05:57;16.50;;;7.97;;
21550;SDS011;10936;49.836;7.078;2023-02-28T22:08:23;16.77;;;8.23;;
21550;SDS011;10936;49.836;7.078;2023-02-28T22:10:48;13.50;;;8.33;;
21550;SDS011;10936;49.836;7.078;2023-02-28T22:13:14;15.53;;;7.77;;
21550;SDS011;10936;49.836;7.078;2023-02-28T22:15:39;15.03;;;8.60;;
21550;SDS011;10936;49.836;7.078;2023-02-28T22:18:05;19.27;;;8.80;;
21550;SDS011;10936;49.836;7.078;2023-02-28T22:20:31;19.80;;;8.63;;
21550;SDS011;10936;49.836;7.078;2023-02-28T22:22:56;15.47;;;8.70;;
21550;SDS011;10936;49.836;7.078;2023-02-28T22:25:22;15.17;;;8.23;;
21550;SDS011;10936;49.836;7.078;2023-02-28T22:27:47;14.70;;;8.50;;
